ADDS TAF Board (Experimental) INFO

IDs: Format: Expanded Condensed

Updated at: 1158 UTC 20 Sep 2014

KMDW - Chicago/Midway Intl, IL, US

Issued at 1134 UTC 20 Sep 2014
Time1151Z20/12Z20/13Z20/14Z20/15Z20/16Z20/17Z20/18Z20/19Z20/20Z20/21Z20/22Z20/23Z21/00Z
TypeOBSPRVLPRVLPRVLPRVLPRVLPRVLPRVL
  [TEMP]  
PRVL
  [TEMP]  
PRVL
  [TEMP]  
PRVLPRVLPRVLPRVL
VIS10>6>6>6>6>6>6>6
  [5]  
>6
  [5]  
>6
  [5]  
>6>6>6>6
CIG363535120120120100100
  [40]  
100
  [40]  
100
  [40]  
10010010070
CoverOVCBKNBKNBKNBKNBKNBKNBKN
  [BKN]  
BKN
  [BKN]  
BKN
  [BKN]  
BKNBKNBKNBKN
FltCat--VFRVFRVFRVFRVFRVFRVFR
  [MVFR]  
VFR
  [MVFR]  
VFR
  [MVFR]  
VFRVFRVFRVFR
WX------------VCSHVCSH
  [-TSRA]  
VCSH
  [-TSRA]  
VCSH
  [-TSRA]  
VCSHVCSHVCSH--
WDir210210210230230230220220
[220]
220
[220]
220
[220]
220220220270
WSpd1011111313131313
  [13]  
13
  [13]  
13
  [13]  
13131310
WGst--18182222221818
  [18]  
18
  [18]  
18
  [18]  
181818--
R04/22
XWnd-2-2-2222-1-1-1-1-1-1-17
XGst---4-4333-1-1-1-1-1-1-1--
HWnd-10-11-11-13-13-13-13-13-13-13-13-13-13-7
HGst---18-18-22-22-22-18-18-18-18-18-18-18--
R13/31
XWnd-10-11-11-13-13-13-13-13-13-13-13-13-13-7
XGst---17-17-22-22-22-18-18-18-18-18-18-18--
HWnd233-1-1-11111111-7
HGst--44-2-2-21111111--
Raw TAF
KMDW 201134Z 2012/2112 21011G18KT P6SM BKN035
  FM201400 23013G22KT P6SM SCT040 BKN120
  FM201700 22013G18KT P6SM VCSH SCT040 BKN100
  TEMPO 2018/2021 5SM -TSRA SCT015 BKN040CB
  FM210000 27010KT P6SM SCT040 BKN070
  FM210800 29012G17KT P6SM FEW030


Raw METAR
KMDW 201151Z 21010KT 10SM BKN036 OVC150 17/13 A2993 RMK AO2 SLP131 T01720128 10189 20172 51004
KMDW 201051Z 22013KT 10SM FEW150 OVC300 18/12 A2993 RMK AO2 SLP128 T01780122

TAF Board Legend

Hazard VFR MVFR IFR LIFR
Visibility (sm) >5 3≤X≤5 1≤X<3 <1
Ceiling (100 ft) >30 10≤X≤30 5≤X<10 <5
Wind Speed (kt) <10 10≤X<20 20≤X<30 ≥30
Wind Gust (kt) <15 15≤X<25 25≤X<35 ≥35
Weather No Wx Reported VCTS,-TS,-FZRA TS,FZRA +TS,+FZRA


Page loaded:  11:58 UTC  |   04:58 AM Pacific  |   05:58 AM Mountain  |   06:58 AM Central  |   07:58 AM Eastern

 

ADVISORIES

FORECASTS

FORECASTS

OBSERVATIONS

USER TOOLS

ABOUT US